createdAt,value
2017-06-21T11:15:16.813Z,34.73
2017-06-21T11:17:42.672Z,35.59
2017-06-21T11:20:08.573Z,35.80
2017-06-21T11:22:34.577Z,35.73
2017-06-21T11:25:00.475Z,34.16
2017-06-21T11:27:26.388Z,33.39
2017-06-21T11:29:52.528Z,34.48
2017-06-21T11:32:18.442Z,34.44
2017-06-21T11:34:44.335Z,34.09
2017-06-21T11:37:10.280Z,33.05
2017-06-21T11:39:36.174Z,33.43
2017-06-21T11:42:02.141Z,32.83
2017-06-21T11:44:28.074Z,32.54
2017-06-21T11:46:53.964Z,32.77
2017-06-21T11:49:20.012Z,32.47
2017-06-21T11:51:45.908Z,32.44
2017-06-21T11:54:11.890Z,32.86
2017-06-21T11:56:37.826Z,31.77
2017-06-21T11:59:03.780Z,32.67
2017-06-21T12:01:29.715Z,32.48
2017-06-21T12:03:55.546Z,33.09
2017-06-21T12:06:21.638Z,32.80
2017-06-21T12:08:47.522Z,32.01
2017-06-21T12:11:13.583Z,33.32
2017-06-21T12:13:39.536Z,32.22
2017-06-21T12:16:05.365Z,33.22
2017-06-21T12:18:31.256Z,33.96
2017-06-21T12:20:57.155Z,33.18
2017-06-21T12:23:23.012Z,33.32
2017-06-21T12:25:48.907Z,32.91
2017-06-21T12:28:14.820Z,32.28
2017-06-21T12:30:40.713Z,32.98
2017-06-21T12:33:06.742Z,32.54
2017-06-21T12:35:32.663Z,32.18
2017-06-21T12:37:58.536Z,32.34
2017-06-21T12:40:24.501Z,31.71
2017-06-21T12:42:50.468Z,31.50
2017-06-21T12:45:16.439Z,31.76
2017-06-21T12:47:42.313Z,34.04
2017-06-21T12:50:08.228Z,32.29
2017-06-21T12:52:34.150Z,31.98
2017-06-21T12:55:00.051Z,32.51
2017-06-21T12:57:25.967Z,31.41
2017-06-21T12:59:51.943Z,31.68
2017-06-21T13:02:17.808Z,31.87
2017-06-21T13:04:43.761Z,32.31
2017-06-21T13:07:09.601Z,32.79
2017-06-21T13:09:35.501Z,32.33
2017-06-21T13:12:01.472Z,31.55
2017-06-21T13:14:27.475Z,32.75
2017-06-21T13:16:53.322Z,32.67
2017-06-21T13:19:19.347Z,32.39
2017-06-21T13:21:45.227Z,31.09
2017-06-21T13:24:12.092Z,31.56
2017-06-21T13:26:38.050Z,31.18
2017-06-21T13:29:04.109Z,31.70
2017-06-21T13:31:30.036Z,32.68
2017-06-21T13:33:55.897Z,32.26
2017-06-21T13:36:21.752Z,32.45
2017-06-21T13:38:47.688Z,32.47
2017-06-21T13:41:13.613Z,32.56
2017-06-21T13:43:39.576Z,32.43
2017-06-21T13:46:05.444Z,33.00
2017-06-21T13:48:31.404Z,33.19
2017-06-21T13:50:57.285Z,31.99
2017-06-21T13:53:23.249Z,31.17
2017-06-21T13:55:49.084Z,32.97
2017-06-21T13:58:14.951Z,32.29
2017-06-21T14:00:41.283Z,32.17
2017-06-21T14:03:07.130Z,31.31
2017-06-21T14:05:33.003Z,31.59
2017-06-21T14:07:58.974Z,30.17
2017-06-21T14:10:24.913Z,31.27
2017-06-21T14:12:50.844Z,31.03
2017-06-21T14:15:16.691Z,31.02
2017-06-21T14:17:42.548Z,30.94
2017-06-21T14:20:08.440Z,30.92
2017-06-21T14:22:34.321Z,30.76
2017-06-21T14:25:00.200Z,29.96
2017-06-21T14:27:26.146Z,29.55
2017-06-21T14:29:52.061Z,29.20
2017-06-21T14:32:17.976Z,28.29
2017-06-21T14:34:43.812Z,29.87
2017-06-21T14:37:09.693Z,30.16
2017-06-21T14:39:35.909Z,30.41
2017-06-21T14:42:01.983Z,29.79
2017-06-21T14:44:27.939Z,29.22
2017-06-21T14:46:53.775Z,30.40
2017-06-21T14:49:19.772Z,29.63
2017-06-21T14:51:45.765Z,27.54
2017-06-21T14:54:11.657Z,28.49
2017-06-21T14:56:37.662Z,28.56
2017-06-21T14:59:03.526Z,29.77
2017-06-21T15:01:29.449Z,30.68
2017-06-21T15:03:55.395Z,30.46
2017-06-21T15:06:21.274Z,29.73
2017-06-21T15:08:47.140Z,29.93
2017-06-21T15:11:13.001Z,29.66
2017-06-21T15:13:38.939Z,30.16
2017-06-21T15:16:04.853Z,30.16
2017-06-21T15:18:30.790Z,29.65
2017-06-21T15:20:56.648Z,29.55
2017-06-21T15:23:22.536Z,29.53
2017-06-21T15:25:48.459Z,28.96
2017-06-21T15:28:14.474Z,28.99
2017-06-21T15:30:40.404Z,29.48
2017-06-21T15:33:06.265Z,29.37
2017-06-21T15:35:32.168Z,29.06
2017-06-21T15:37:58.092Z,29.00
2017-06-21T15:40:23.998Z,29.12
2017-06-21T15:42:49.931Z,28.35
2017-06-21T15:45:15.839Z,28.03
2017-06-21T15:47:41.777Z,28.05
2017-06-21T15:50:07.660Z,27.98
2017-06-21T15:52:33.645Z,27.77
2017-06-21T15:54:59.521Z,27.40
2017-06-21T15:57:26.292Z,26.55
2017-06-21T15:59:52.177Z,27.38
2017-06-21T16:02:18.131Z,26.41
2017-06-21T16:04:44.056Z,24.12
2017-06-21T16:07:10.036Z,24.15
2017-06-21T16:09:35.963Z,24.27
2017-06-21T16:12:01.852Z,24.95
2017-06-21T16:14:27.777Z,26.39
2017-06-21T16:16:53.624Z,26.50
2017-06-21T16:19:19.456Z,25.76
2017-06-21T16:21:45.374Z,25.55
2017-06-21T16:24:11.940Z,25.92
2017-06-21T16:26:37.836Z,23.83
2017-06-21T16:29:03.789Z,24.58
2017-06-21T16:31:29.757Z,23.38
2017-06-21T16:33:55.707Z,23.45
2017-06-21T16:36:21.683Z,22.95
2017-06-21T16:38:47.573Z,22.85
2017-06-21T16:41:13.544Z,23.48
2017-06-21T16:43:39.387Z,23.61
2017-06-21T16:46:05.359Z,24.68
2017-06-21T16:48:31.224Z,24.66
2017-06-21T16:50:57.324Z,25.48
2017-06-21T16:53:23.284Z,25.91
2017-06-21T16:55:49.223Z,26.53
2017-06-21T16:58:15.083Z,26.30
2017-06-21T17:00:41.152Z,26.71
2017-06-21T17:03:07.096Z,27.37
2017-06-21T17:05:33.009Z,28.51
2017-06-21T17:07:59.011Z,28.67
2017-06-21T17:10:24.949Z,28.54
2017-06-21T17:12:50.833Z,29.93
2017-06-21T17:15:16.650Z,30.20
2017-06-21T17:17:42.490Z,30.30
2017-06-21T17:20:08.507Z,31.61
2017-06-21T17:22:34.476Z,31.40
2017-06-21T17:25:00.348Z,31.22
2017-06-21T17:27:26.186Z,30.82
2017-06-21T17:29:52.112Z,31.87
2017-06-21T17:32:17.959Z,31.64
2017-06-21T17:34:43.773Z,32.05
2017-06-21T17:37:09.665Z,32.20
2017-06-21T17:39:35.591Z,32.35
2017-06-21T17:42:01.442Z,32.41
2017-06-21T17:44:27.283Z,33.20
2017-06-21T17:46:53.170Z,32.68
2017-06-21T17:49:19.064Z,32.99
2017-06-21T17:51:44.912Z,32.10
2017-06-21T17:54:10.793Z,32.76
2017-06-21T17:56:36.627Z,32.01
2017-06-21T17:59:02.477Z,32.21
2017-06-21T18:01:28.516Z,31.35
2017-06-21T18:03:54.398Z,31.67
2017-06-21T18:06:20.224Z,31.77
2017-06-21T18:08:46.082Z,32.17
2017-06-21T18:11:11.892Z,32.63
2017-06-21T18:13:37.779Z,32.72
2017-06-21T18:16:03.703Z,33.47
2017-06-21T18:18:30.558Z,34.04
2017-06-21T18:20:56.519Z,34.80
2017-06-21T18:23:22.398Z,34.49
2017-06-21T18:25:49.106Z,35.33
2017-06-21T18:28:14.970Z,36.05
2017-06-21T18:30:40.991Z,36.44
2017-06-21T18:33:06.896Z,36.24
2017-06-21T18:35:32.765Z,37.44
2017-06-21T18:37:58.849Z,37.66
2017-06-21T18:40:24.766Z,38.37
2017-06-21T18:42:50.652Z,38.63
2017-06-21T18:45:16.601Z,39.58
2017-06-21T18:47:42.498Z,40.10
2017-06-21T18:50:08.336Z,41.10
2017-06-21T18:52:34.245Z,41.13
2017-06-21T18:55:00.183Z,41.56
2017-06-21T18:57:26.072Z,42.34
2017-06-21T18:59:51.983Z,42.47
2017-06-21T19:02:17.875Z,42.79
2017-06-21T19:04:43.803Z,42.92
2017-06-21T19:07:09.648Z,43.40
2017-06-21T19:09:35.521Z,43.70
2017-06-21T19:12:01.456Z,43.95
2017-06-21T19:14:27.267Z,44.58
2017-06-21T19:16:53.167Z,45.10
2017-06-21T19:19:19.036Z,44.80
2017-06-21T19:21:44.971Z,44.39
2017-06-21T19:24:10.863Z,43.45
2017-06-21T19:26:37.420Z,43.94
2017-06-21T19:29:03.300Z,44.47
2017-06-21T19:31:29.241Z,44.16
2017-06-21T19:33:55.144Z,44.88
2017-06-21T19:36:21.086Z,45.63
2017-06-21T19:38:46.931Z,46.39
2017-06-21T19:41:12.807Z,46.67
2017-06-21T19:43:38.835Z,46.00
2017-06-21T19:46:04.769Z,45.22
2017-06-21T19:48:30.599Z,46.06
2017-06-21T19:50:56.420Z,45.73
2017-06-21T19:53:22.236Z,46.77
2017-06-21T19:55:48.229Z,47.27
2017-06-21T19:58:14.078Z,47.52
2017-06-21T20:00:40.072Z,47.26
2017-06-21T20:03:05.979Z,47.70
2017-06-21T20:05:31.829Z,46.56
2017-06-21T20:07:57.826Z,47.18
2017-06-21T20:10:23.667Z,46.86
2017-06-21T20:12:49.682Z,47.86
2017-06-21T20:15:15.552Z,48.63
2017-06-21T20:17:41.497Z,48.52
2017-06-21T20:20:07.376Z,48.79
2017-06-21T20:22:33.332Z,49.71
2017-06-21T20:24:59.293Z,49.39
2017-06-21T20:27:25.114Z,49.17
2017-06-21T20:29:50.943Z,50.21
2017-06-21T20:32:16.809Z,50.66
2017-06-21T20:34:42.747Z,51.06
2017-06-21T20:37:08.580Z,51.53
2017-06-21T20:39:34.402Z,51.87
2017-06-21T20:42:01.281Z,52.21
2017-06-21T20:44:27.267Z,51.77
2017-06-21T20:46:53.103Z,52.60
2017-06-21T20:49:19.139Z,52.76
2017-06-21T20:51:45.081Z,52.75
2017-06-21T20:54:10.905Z,52.88
2017-06-21T20:56:36.856Z,53.45
2017-06-21T20:59:02.773Z,53.33
2017-06-21T21:01:28.608Z,53.14
2017-06-21T21:03:54.485Z,54.16
2017-06-21T21:06:20.817Z,55.19
2017-06-21T21:08:46.756Z,55.05
2017-06-21T21:11:12.680Z,55.36
2017-06-21T21:13:38.560Z,56.10
2017-06-21T21:16:04.436Z,55.94
2017-06-21T21:18:30.324Z,55.76
2017-06-21T21:20:56.200Z,55.91
2017-06-21T21:23:22.085Z,56.00
2017-06-21T21:25:48.049Z,55.95
2017-06-21T21:28:13.904Z,56.86
2017-06-21T21:30:39.900Z,56.95
2017-06-21T21:33:05.748Z,56.97
2017-06-21T21:35:31.745Z,57.35
2017-06-21T21:37:57.600Z,57.76
2017-06-21T21:40:23.579Z,57.66
2017-06-21T21:42:49.408Z,58.50
2017-06-21T21:45:15.373Z,58.69
2017-06-21T21:47:41.275Z,58.99
2017-06-21T21:50:07.259Z,58.99
2017-06-21T21:52:33.112Z,59.28
2017-06-21T21:54:59.109Z,58.95
2017-06-21T21:57:25.840Z,58.65
2017-06-21T21:59:51.713Z,58.46
2017-06-21T22:02:17.571Z,58.29
2017-06-21T22:04:43.488Z,59.36
2017-06-21T22:07:09.403Z,60.35
2017-06-21T22:09:35.295Z,60.48
2017-06-21T22:12:01.377Z,59.89
2017-06-21T22:14:27.256Z,59.79
2017-06-21T22:16:53.132Z,60.06
2017-06-21T22:19:19.010Z,60.68
2017-06-21T22:21:45.763Z,60.58
2017-06-21T22:24:11.676Z,60.58
2017-06-21T22:26:37.628Z,60.52
2017-06-21T22:29:03.462Z,60.91
2017-06-21T22:31:29.359Z,60.77
2017-06-21T22:33:55.267Z,61.53
2017-06-21T22:36:21.132Z,61.04
2017-06-21T22:38:47.047Z,61.46
2017-06-21T22:41:12.984Z,62.03
2017-06-21T22:43:38.859Z,61.88
2017-06-21T22:46:04.827Z,61.94
2017-06-21T22:48:30.680Z,62.21
2017-06-21T22:50:56.629Z,61.98
2017-06-21T22:53:22.603Z,62.49
2017-06-21T22:55:48.489Z,62.15
2017-06-21T22:58:14.568Z,62.77
2017-06-21T23:00:40.541Z,62.85
2017-06-21T23:03:06.411Z,63.18
2017-06-21T23:05:32.377Z,63.05
2017-06-21T23:07:58.260Z,62.93
2017-06-21T23:10:24.200Z,62.75
2017-06-21T23:12:50.105Z,62.97
2017-06-21T23:15:16.016Z,62.98
2017-06-21T23:17:41.911Z,63.43
2017-06-21T23:20:07.795Z,63.67
2017-06-21T23:22:33.672Z,62.93
2017-06-21T23:24:59.527Z,63.13
2017-06-21T23:27:25.396Z,63.37
2017-06-21T23:29:51.271Z,63.99
2017-06-21T23:32:17.184Z,64.07
2017-06-21T23:34:43.092Z,64.55
2017-06-21T23:37:09.011Z,63.82
2017-06-21T23:39:34.919Z,64.00
2017-06-21T23:42:00.847Z,64.17
2017-06-21T23:44:26.731Z,63.91
2017-06-21T23:46:52.609Z,64.34
2017-06-21T23:49:18.515Z,65.09
2017-06-21T23:51:44.476Z,65.76
2017-06-21T23:54:10.404Z,65.29
2017-06-21T23:56:36.270Z,65.63
2017-06-21T23:59:02.297Z,65.57
